createdAt,value
2023-03-16T00:07:17.814Z,-0.90
2023-03-16T00:17:23.280Z,-1.40
2023-03-16T00:27:27.958Z,-1.90
2023-03-16T00:37:33.984Z,-2.40
2023-03-16T00:47:37.515Z,-2.90
2023-03-16T00:57:42.392Z,-3.20
2023-03-16T01:07:45.852Z,-3.50
2023-03-16T01:17:51.866Z,-3.70
2023-03-16T01:27:55.291Z,-3.70
2023-03-16T01:38:00.155Z,-3.90
2023-03-16T01:48:04.393Z,-4.00
2023-03-16T01:58:09.872Z,-4.20
2023-03-16T02:08:14.396Z,-4.30
2023-03-16T02:18:23.095Z,-4.40
2023-03-16T02:28:35.193Z,-4.50
2023-03-16T02:38:40.289Z,-4.70
2023-03-16T02:48:49.360Z,-4.80
2023-03-16T02:58:54.836Z,-4.80
2023-03-16T03:08:58.546Z,-5.00
2023-03-16T03:19:03.970Z,-5.10
2023-03-16T03:29:12.627Z,-5.20
2023-03-16T03:39:18.702Z,-5.20
2023-03-16T03:49:25.399Z,-5.20
2023-03-16T03:59:30.512Z,-5.10
2023-03-16T04:09:52.715Z,-5.20
2023-03-16T04:20:12.986Z,-5.30
2023-03-16T04:30:17.675Z,-5.60
2023-03-16T04:40:27.442Z,-5.60
2023-03-16T04:50:40.996Z,-5.60
2023-03-16T05:00:46.471Z,-5.60
2023-03-16T05:10:58.718Z,-5.50
2023-03-16T05:21:07.843Z,-5.40
2023-03-16T05:31:27.888Z,-5.20
2023-03-16T05:41:37.471Z,-4.90
2023-03-16T05:52:04.424Z,-4.60
2023-03-16T06:02:12.566Z,-4.10
2023-03-16T06:12:17.377Z,-3.60
2023-03-16T06:22:24.031Z,-2.80
2023-03-16T06:32:27.726Z,-1.80
2023-03-16T06:42:33.708Z,0.50
2023-03-16T06:52:37.942Z,3.90
2023-03-16T07:02:43.855Z,6.30
2023-03-16T07:12:50.403Z,8.60
2023-03-16T07:22:55.455Z,10.80
2023-03-16T07:32:59.668Z,12.10
2023-03-16T07:43:05.300Z,14.00
2023-03-16T07:53:17.557Z,16.20
2023-03-16T08:03:28.780Z,17.60
2023-03-16T08:13:32.861Z,19.10
2023-03-16T08:23:38.246Z,20.80
2023-03-16T08:33:47.890Z,22.30
2023-03-16T08:43:56.691Z,23.40
2023-03-16T08:54:00.758Z,23.40
2023-03-16T09:04:05.722Z,23.70
2023-03-16T09:14:09.220Z,16.80
2023-03-16T09:24:14.397Z,17.30
2023-03-16T09:34:18.083Z,16.50
2023-03-16T09:44:36.582Z,15.20
2023-03-16T09:54:47.553Z,19.10
2023-03-16T10:05:06.564Z,19.70
2023-03-16T10:15:13.898Z,16.30
2023-03-16T10:25:25.250Z,14.60
2023-03-16T10:35:42.803Z,14.00
2023-03-16T10:45:48.434Z,10.80
2023-03-16T10:55:58.814Z,12.60
2023-03-16T11:06:07.598Z,18.60
2023-03-16T11:16:26.066Z,28.40
2023-03-16T11:26:35.584Z,19.70
2023-03-16T11:36:50.258Z,20.70
2023-03-16T11:47:02.542Z,19.20
2023-03-16T11:57:19.945Z,29.50
2023-03-16T12:07:42.987Z,19.00
2023-03-16T12:17:48.111Z,16.60
2023-03-16T12:27:56.297Z,19.60
2023-03-16T12:38:20.647Z,20.10
2023-03-16T12:48:32.017Z,29.90
2023-03-16T12:58:35.770Z,33.30
2023-03-16T13:08:49.412Z,34.40
2023-03-16T13:18:53.310Z,33.60
2023-03-16T13:28:58.662Z,25.70
2023-03-16T13:39:08.446Z,29.40
2023-03-16T13:49:15.004Z,28.50
2023-03-16T13:59:19.049Z,17.60
2023-03-16T14:09:28.740Z,13.40
2023-03-16T14:19:42.341Z,12.50
2023-03-16T14:29:54.408Z,18.50
2023-03-16T14:40:07.244Z,19.50
2023-03-16T14:50:18.810Z,17.50
2023-03-16T15:00:24.049Z,16.50
2023-03-16T15:10:31.977Z,13.80
2023-03-16T15:20:41.452Z,11.20
2023-03-16T15:30:48.995Z,9.00
2023-03-16T15:40:53.525Z,7.70
2023-03-16T15:51:02.230Z,7.10
2023-03-16T16:01:08.997Z,6.40
2023-03-16T16:11:17.951Z,5.50
2023-03-16T16:21:24.840Z,4.80
2023-03-16T16:31:31.684Z,4.60
2023-03-16T16:41:36.881Z,4.40
2023-03-16T16:51:42.771Z,3.70
2023-03-16T17:01:47.683Z,2.90
2023-03-16T17:11:54.148Z,2.00
2023-03-16T17:21:59.379Z,1.30
2023-03-16T17:32:11.502Z,0.80
2023-03-16T17:42:17.982Z,0.30
2023-03-16T17:52:25.835Z,0.00
2023-03-16T18:02:41.633Z,-0.30
2023-03-16T18:12:47.216Z,-0.70
2023-03-16T18:22:51.049Z,-1.20
2023-03-16T18:32:59.282Z,-1.50
2023-03-16T18:43:02.799Z,-1.80
2023-03-16T18:53:10.314Z,-2.00
2023-03-16T19:03:24.576Z,-2.10
2023-03-16T19:13:29.886Z,-2.40
2023-03-16T19:23:37.709Z,-2.60
2023-03-16T19:33:42.645Z,-2.70
2023-03-16T19:43:46.442Z,-2.80
2023-03-16T19:53:53.779Z,-2.90
2023-03-16T20:03:57.806Z,-3.10
2023-03-16T20:14:03.705Z,-3.20
2023-03-16T20:24:16.479Z,-3.50
2023-03-16T20:34:24.672Z,-3.80
2023-03-16T20:44:30.347Z,-4.10
2023-03-16T20:54:35.952Z,-4.10
2023-03-16T21:04:42.720Z,-4.30
2023-03-16T21:14:48.965Z,-4.50
2023-03-16T21:24:52.648Z,-4.50
2023-03-16T21:34:59.454Z,-4.50
2023-03-16T21:45:03.889Z,-4.60
2023-03-16T21:55:23.735Z,-4.70
2023-03-16T22:05:36.495Z,-4.90
2023-03-16T22:15:43.603Z,-5.00
2023-03-16T22:25:47.061Z,-5.20
2023-03-16T22:35:53.483Z,-5.10
2023-03-16T22:45:57.328Z,-5.10
2023-03-16T22:56:02.575Z,-5.20
2023-03-16T23:06:09.079Z,-5.30
2023-03-16T23:16:22.168Z,-5.40
2023-03-16T23:26:27.839Z,-5.40
2023-03-16T23:36:33.580Z,-5.60
2023-03-16T23:46:37.229Z,-5.70
2023-03-16T23:56:42.137Z,-5.80
